createdAt,value
2018-09-15T00:00:48.658Z,5.20
2018-09-15T00:03:17.019Z,5.57
2018-09-15T00:05:45.394Z,4.57
2018-09-15T00:08:14.154Z,4.10
2018-09-15T00:10:42.743Z,3.70
2018-09-15T00:13:11.717Z,6.03
2018-09-15T00:15:40.354Z,4.20
2018-09-15T00:18:11.969Z,5.10
2018-09-15T00:20:40.972Z,6.00
2018-09-15T00:23:10.927Z,6.20
2018-09-15T00:25:40.014Z,5.17
2018-09-15T00:28:09.307Z,5.33
2018-09-15T00:30:38.379Z,5.20
2018-09-15T00:33:06.780Z,4.37
2018-09-15T00:35:35.986Z,4.60
2018-09-15T00:38:04.387Z,5.30
2018-09-15T00:40:32.797Z,4.80
2018-09-15T00:43:01.200Z,5.13
2018-09-15T00:45:29.966Z,3.70
2018-09-15T00:47:58.575Z,4.63
2018-09-15T00:50:26.966Z,4.83
2018-09-15T00:52:55.656Z,4.80
2018-09-15T00:55:24.351Z,4.60
2018-09-15T00:57:52.790Z,4.27
2018-09-15T01:00:22.030Z,4.87
2018-09-15T01:02:50.661Z,4.97
2018-09-15T01:05:19.038Z,4.97
2018-09-15T01:07:47.750Z,4.70
2018-09-15T01:10:16.214Z,4.30
2018-09-15T01:12:44.599Z,5.47
2018-09-15T01:15:13.285Z,3.67
2018-09-15T01:17:42.190Z,5.33
2018-09-15T01:20:10.938Z,4.43
2018-09-15T01:22:40.143Z,4.70
2018-09-15T01:25:08.538Z,6.30
2018-09-15T01:27:37.211Z,4.53
2018-09-15T01:30:05.775Z,5.20
2018-09-15T01:32:34.146Z,5.60
2018-09-15T01:35:02.530Z,5.30
2018-09-15T01:37:30.903Z,6.47
2018-09-15T01:39:59.510Z,5.80
2018-09-15T01:42:27.902Z,6.57
2018-09-15T01:44:56.530Z,6.60
2018-09-15T01:47:24.911Z,5.70
2018-09-15T01:49:53.627Z,6.40
2018-09-15T01:52:22.023Z,6.37
2018-09-15T01:54:50.378Z,5.80
2018-09-15T01:57:18.759Z,5.83
2018-09-15T01:59:47.387Z,5.53
2018-09-15T02:02:16.270Z,4.80
2018-09-15T02:04:45.262Z,6.80
2018-09-15T02:07:13.630Z,5.80
2018-09-15T02:09:41.994Z,5.97
2018-09-15T02:12:10.369Z,5.30
2018-09-15T02:14:39.085Z,5.60
2018-09-15T02:17:08.050Z,5.13
2018-09-15T02:19:36.735Z,6.17
2018-09-15T02:22:05.833Z,5.67
2018-09-15T02:24:34.471Z,6.17
2018-09-15T02:27:03.202Z,5.70
2018-09-15T02:29:31.591Z,5.50
2018-09-15T02:31:59.956Z,4.30
2018-09-15T02:34:28.691Z,4.70
2018-09-15T02:36:57.671Z,6.43
2018-09-15T02:39:26.027Z,4.90
2018-09-15T02:41:54.418Z,4.90
2018-09-15T02:44:22.768Z,5.93
2018-09-15T02:46:51.139Z,6.00
2018-09-15T02:49:19.506Z,5.17
2018-09-15T02:51:48.158Z,5.20
2018-09-15T02:54:16.799Z,5.00
2018-09-15T02:56:45.262Z,5.17
2018-09-15T02:59:13.959Z,5.60
2018-09-15T03:01:42.553Z,6.77
2018-09-15T03:04:10.928Z,5.80
2018-09-15T03:06:40.228Z,5.27
2018-09-15T03:09:10.186Z,5.03
2018-09-15T03:11:38.647Z,5.83
2018-09-15T03:14:07.302Z,4.90
2018-09-15T03:16:36.138Z,4.70
2018-09-15T03:19:04.849Z,4.37
2018-09-15T03:21:33.256Z,4.70
2018-09-15T03:24:01.636Z,6.00
2018-09-15T03:26:30.336Z,5.87
2018-09-15T03:28:59.212Z,5.20
2018-09-15T03:31:28.050Z,4.33
2018-09-15T03:33:56.445Z,5.20
2018-09-15T03:36:24.826Z,4.83
2018-09-15T03:38:54.205Z,4.97
2018-09-15T03:41:23.210Z,5.13
2018-09-15T03:43:51.535Z,5.20
2018-09-15T03:46:20.215Z,4.57
2018-09-15T03:48:49.239Z,5.20
2018-09-15T03:51:17.954Z,5.93
2018-09-15T03:53:47.218Z,3.90
2018-09-15T03:56:15.575Z,5.13
2018-09-15T03:58:43.999Z,5.03
2018-09-15T04:01:12.657Z,4.90
2018-09-15T04:03:41.342Z,5.30
2018-09-15T04:06:10.026Z,3.90
2018-09-15T04:08:38.426Z,4.07
2018-09-15T04:11:06.922Z,4.87
2018-09-15T04:13:35.575Z,5.10
2018-09-15T04:16:03.958Z,4.07
2018-09-15T04:18:32.610Z,4.73
2018-09-15T04:21:01.623Z,3.20
2018-09-15T04:23:30.346Z,4.13
2018-09-15T04:25:58.726Z,4.90
2018-09-15T04:28:27.494Z,5.37
2018-09-15T04:30:55.845Z,5.10
2018-09-15T04:33:24.215Z,3.80
2018-09-15T04:35:52.571Z,4.77
2018-09-15T04:38:20.927Z,5.03
2018-09-15T04:40:49.283Z,3.50
2018-09-15T04:43:17.638Z,4.97
2018-09-15T04:45:46.755Z,4.03
2018-09-15T04:48:15.119Z,4.73
2018-09-15T04:50:43.798Z,4.53
2018-09-15T04:53:12.442Z,4.07
2018-09-15T04:55:41.074Z,4.33
2018-09-15T04:58:09.757Z,3.87
2018-09-15T05:00:38.443Z,5.03
2018-09-15T05:03:06.880Z,5.30
2018-09-15T05:05:35.530Z,4.67
2018-09-15T05:08:04.186Z,6.20
2018-09-15T05:10:32.540Z,4.60
2018-09-15T05:13:01.251Z,5.40
2018-09-15T05:15:29.599Z,5.17
2018-09-15T05:17:58.297Z,4.87
2018-09-15T05:20:26.862Z,4.70
2018-09-15T05:22:55.832Z,6.07
2018-09-15T05:25:24.523Z,5.03
2018-09-15T05:27:53.602Z,4.97
2018-09-15T05:30:23.155Z,5.17
2018-09-15T05:32:51.770Z,3.73
2018-09-15T05:35:20.146Z,4.77
2018-09-15T05:37:49.214Z,5.37
2018-09-15T05:40:17.562Z,4.10
2018-09-15T05:42:45.906Z,4.77
2018-09-15T05:45:14.258Z,5.37
2018-09-15T05:47:42.696Z,4.40
2018-09-15T05:50:11.314Z,4.33
2018-09-15T05:52:39.695Z,5.23
2018-09-15T05:55:08.406Z,3.93
2018-09-15T05:57:37.091Z,4.70
2018-09-15T06:00:05.966Z,4.83
2018-09-15T06:02:34.326Z,4.90
2018-09-15T06:05:03.003Z,5.13
2018-09-15T06:07:31.418Z,4.20
2018-09-15T06:10:00.327Z,4.60
2018-09-15T06:12:29.011Z,4.77
2018-09-15T06:14:57.386Z,4.70
2018-09-15T06:17:25.729Z,4.30
2018-09-15T06:19:53.840Z,5.27
2018-09-15T06:22:23.001Z,5.77
2018-09-15T06:24:51.069Z,4.40
2018-09-15T06:27:19.750Z,4.93
2018-09-15T06:29:48.636Z,4.17
2018-09-15T06:32:16.994Z,4.97
2018-09-15T06:34:45.386Z,4.67
2018-09-15T06:37:13.786Z,4.67
2018-09-15T06:39:42.166Z,5.13
2018-09-15T06:42:11.346Z,3.50
2018-09-15T06:44:39.722Z,4.10
2018-09-15T06:47:08.014Z,4.10
2018-09-15T06:49:36.382Z,3.90
2018-09-15T06:52:05.299Z,4.90
2018-09-15T06:54:33.846Z,3.93
2018-09-15T06:57:02.213Z,4.10
2018-09-15T06:59:31.376Z,3.97
2018-09-15T07:01:59.743Z,4.20
2018-09-15T07:04:28.350Z,5.30
2018-09-15T07:06:56.768Z,4.43
2018-09-15T07:09:25.399Z,4.60
2018-09-15T07:11:54.048Z,4.47
2018-09-15T07:14:22.766Z,4.70
2018-09-15T07:16:51.730Z,4.33
2018-09-15T07:19:20.421Z,4.37
2018-09-15T07:21:48.784Z,5.00
2018-09-15T07:24:17.470Z,4.90
2018-09-15T07:26:46.879Z,5.37
2018-09-15T07:29:15.574Z,5.40
2018-09-15T07:31:44.452Z,5.57
2018-09-15T07:34:12.832Z,4.00
2018-09-15T07:36:41.222Z,4.47
2018-09-15T07:39:11.123Z,4.23
2018-09-15T07:41:40.026Z,3.60
2018-09-15T07:44:08.455Z,4.80
2018-09-15T07:46:36.806Z,5.00
2018-09-15T07:49:05.857Z,5.20
2018-09-15T07:51:34.357Z,4.10
2018-09-15T07:54:02.919Z,5.33
2018-09-15T07:56:31.274Z,5.30
2018-09-15T07:58:59.651Z,5.00
2018-09-15T08:01:27.992Z,4.63
2018-09-15T08:03:56.403Z,5.40
2018-09-15T08:06:24.779Z,5.20
2018-09-15T08:08:53.154Z,5.50
2018-09-15T08:11:22.122Z,4.70
2018-09-15T08:13:50.509Z,4.60
2018-09-15T08:16:19.138Z,5.67
2018-09-15T08:18:48.046Z,3.83
2018-09-15T08:21:16.923Z,4.30
2018-09-15T08:23:45.810Z,5.03
2018-09-15T08:26:14.440Z,5.30
2018-09-15T08:28:43.302Z,5.77
2018-09-15T08:31:11.966Z,4.30
2018-09-15T08:33:40.332Z,5.40
2018-09-15T08:36:09.746Z,4.87
2018-09-15T08:38:38.735Z,4.77
2018-09-15T08:41:07.207Z,5.57
2018-09-15T08:43:35.623Z,5.47
2018-09-15T08:46:04.284Z,4.33
2018-09-15T08:48:32.667Z,4.20
2018-09-15T08:51:01.347Z,5.03
2018-09-15T08:53:29.714Z,4.60
2018-09-15T08:55:58.410Z,4.90
2018-09-15T08:58:26.785Z,3.90
2018-09-15T09:00:55.399Z,3.80
2018-09-15T09:03:23.966Z,4.53
2018-09-15T09:05:52.338Z,3.67
2018-09-15T09:08:20.698Z,4.43
2018-09-15T09:10:49.155Z,4.47
2018-09-15T09:13:18.083Z,5.90
2018-09-15T09:15:46.458Z,4.83
2018-09-15T09:18:15.100Z,3.27
2018-09-15T09:20:44.053Z,5.13
2018-09-15T09:23:12.727Z,4.10
2018-09-15T09:25:41.098Z,4.60
2018-09-15T09:28:09.727Z,4.57
2018-09-15T09:30:38.086Z,3.80
2018-09-15T09:33:06.537Z,3.30
2018-09-15T09:35:34.874Z,3.43
2018-09-15T09:38:03.823Z,2.80
2018-09-15T09:40:32.802Z,3.43
2018-09-15T09:43:01.512Z,3.23
2018-09-15T09:45:29.851Z,2.10
2018-09-15T09:47:58.458Z,1.80
2018-09-15T09:50:27.447Z,2.47
2018-09-15T09:52:55.820Z,1.80
2018-09-15T09:55:24.611Z,2.20
2018-09-15T09:57:53.293Z,2.33
2018-09-15T10:00:27.005Z,2.30
2018-09-15T10:02:55.380Z,2.30
2018-09-15T10:05:23.751Z,2.07
2018-09-15T10:07:52.376Z,2.17
2018-09-15T10:10:21.020Z,3.10
2018-09-15T10:12:50.015Z,2.43
2018-09-15T10:15:18.723Z,3.40
2018-09-15T10:17:47.234Z,2.70
2018-09-15T10:20:16.339Z,2.13
2018-09-15T10:22:44.739Z,3.00
2018-09-15T10:25:13.121Z,3.30
2018-09-15T10:27:41.492Z,2.80
2018-09-15T10:30:10.343Z,2.90
2018-09-15T10:32:38.818Z,2.53
2018-09-15T10:35:07.519Z,2.37
2018-09-15T10:37:35.875Z,2.13
2018-09-15T10:40:04.306Z,2.30
2018-09-15T10:42:32.661Z,2.70
2018-09-15T10:45:01.053Z,2.63
2018-09-15T10:47:29.810Z,2.70
2018-09-15T10:49:58.563Z,3.10
2018-09-15T10:52:27.729Z,3.33
2018-09-15T10:54:56.095Z,3.03
2018-09-15T10:57:24.483Z,2.97
2018-09-15T10:59:53.093Z,3.70
2018-09-15T11:02:21.734Z,3.43
2018-09-15T11:04:50.114Z,2.63
2018-09-15T11:07:19.720Z,2.50
2018-09-15T11:09:48.343Z,2.27
2018-09-15T11:12:16.706Z,1.97
2018-09-15T11:14:45.307Z,1.90
2018-09-15T11:17:13.694Z,2.90
2018-09-15T11:19:42.060Z,1.97
2018-09-15T11:22:10.410Z,3.10
2018-09-15T11:24:39.706Z,2.53
2018-09-15T11:27:08.639Z,2.27
2018-09-15T11:29:37.256Z,2.10
2018-09-15T11:32:05.674Z,3.20
2018-09-15T11:34:34.074Z,3.17
2018-09-15T11:37:02.467Z,2.80
2018-09-15T11:39:31.159Z,2.90
2018-09-15T11:41:59.514Z,2.83
2018-09-15T11:44:28.076Z,3.60
2018-09-15T11:46:56.947Z,1.90
2018-09-15T11:49:26.255Z,2.30
2018-09-15T11:51:55.388Z,3.00
2018-09-15T11:54:23.820Z,2.60
2018-09-15T11:56:51.881Z,3.37
2018-09-15T11:59:20.290Z,2.77
2018-09-15T12:01:49.221Z,2.90
2018-09-15T12:04:17.571Z,1.73
2018-09-15T12:06:46.475Z,1.70
2018-09-15T12:09:14.850Z,2.63
2018-09-15T12:11:43.771Z,2.53
2018-09-15T12:14:12.219Z,3.33
2018-09-15T12:16:40.870Z,3.43
2018-09-15T12:19:09.594Z,2.50
2018-09-15T12:21:38.223Z,2.50
2018-09-15T12:24:06.590Z,2.10
2018-09-15T12:26:35.250Z,1.50
2018-09-15T12:29:04.231Z,2.40
2018-09-15T12:31:34.350Z,2.37
2018-09-15T12:34:02.719Z,1.43
2018-09-15T12:36:31.614Z,2.50
2018-09-15T12:39:00.526Z,1.73
2018-09-15T12:41:29.395Z,1.70
2018-09-15T12:43:57.851Z,1.90
2018-09-15T12:46:26.814Z,2.53
2018-09-15T12:48:55.166Z,2.33
2018-09-15T12:51:23.779Z,1.70
2018-09-15T12:53:52.162Z,1.73
2018-09-15T12:56:21.302Z,1.93
2018-09-15T12:58:49.766Z,1.97
2018-09-15T13:01:18.147Z,2.10
2018-09-15T13:03:46.855Z,1.57
2018-09-15T13:06:15.259Z,2.07
2018-09-15T13:08:43.714Z,1.30
2018-09-15T13:11:12.107Z,1.60
2018-09-15T13:13:40.990Z,1.60
2018-09-15T13:16:09.387Z,1.70
2018-09-15T13:18:38.294Z,1.77
2018-09-15T13:21:06.707Z,1.87
2018-09-15T13:23:35.732Z,1.83
2018-09-15T13:26:04.099Z,1.37
2018-09-15T13:28:32.494Z,2.00
2018-09-15T13:31:00.875Z,1.43
2018-09-15T13:33:29.511Z,1.40
2018-09-15T13:35:58.378Z,1.60
2018-09-15T13:38:26.763Z,1.40
2018-09-15T13:40:55.819Z,3.87
2018-09-15T13:43:25.159Z,1.93
2018-09-15T13:45:53.539Z,2.00
2018-09-15T13:48:21.886Z,1.63
2018-09-15T13:50:50.250Z,1.63
2018-09-15T13:53:18.947Z,1.67
2018-09-15T13:55:47.542Z,1.80
2018-09-15T13:58:16.174Z,2.33
2018-09-15T14:00:44.772Z,2.00
2018-09-15T14:03:13.142Z,1.70
2018-09-15T14:05:41.514Z,1.87
2018-09-15T14:08:09.897Z,1.50
2018-09-15T14:10:38.888Z,1.87
2018-09-15T14:13:07.214Z,2.70
2018-09-15T14:15:35.653Z,1.97
2018-09-15T14:18:04.458Z,1.50
2018-09-15T14:20:33.432Z,1.83
2018-09-15T14:23:01.838Z,1.87
2018-09-15T14:25:30.704Z,1.80
2018-09-15T14:27:59.283Z,1.43
2018-09-15T14:30:27.686Z,1.50
2018-09-15T14:32:56.041Z,1.30
2018-09-15T14:35:24.419Z,1.80
2018-09-15T14:37:53.106Z,1.63
2018-09-15T14:40:21.563Z,1.70
2018-09-15T14:42:50.475Z,1.73
2018-09-15T14:45:18.862Z,1.83
2018-09-15T14:47:47.547Z,1.70
2018-09-15T14:50:16.264Z,1.50
2018-09-15T14:52:44.980Z,1.70
2018-09-15T14:55:13.435Z,1.87
2018-09-15T14:57:41.750Z,1.90
2018-09-15T15:00:10.384Z,1.43
2018-09-15T15:02:39.158Z,1.40
2018-09-15T15:05:07.612Z,1.70
2018-09-15T15:07:36.007Z,1.67
2018-09-15T15:10:04.690Z,1.93
2018-09-15T15:12:33.371Z,2.20
2018-09-15T15:15:01.802Z,2.63
2018-09-15T15:17:30.158Z,1.70
2018-09-15T15:19:59.325Z,1.50
2018-09-15T15:22:28.130Z,1.87
2018-09-15T15:24:56.488Z,1.87
2018-09-15T15:27:25.174Z,1.77
2018-09-15T15:29:53.563Z,1.80
2018-09-15T15:32:21.936Z,1.40
2018-09-15T15:34:50.783Z,1.87
2018-09-15T15:37:19.564Z,1.83
2018-09-15T15:39:48.334Z,1.90
2018-09-15T15:42:17.679Z,1.77
2018-09-15T15:44:46.067Z,2.10
2018-09-15T15:47:14.434Z,1.70
2018-09-15T15:49:42.844Z,1.80
2018-09-15T15:52:11.318Z,2.20
2018-09-15T15:54:39.955Z,2.60
2018-09-15T15:57:08.585Z,2.07
2018-09-15T15:59:36.975Z,2.20
2018-09-15T16:02:05.387Z,1.87
2018-09-15T16:04:33.821Z,1.90
2018-09-15T16:07:02.145Z,2.20
2018-09-15T16:09:30.775Z,1.70
2018-09-15T16:11:59.423Z,2.23
2018-09-15T16:14:27.979Z,2.67
2018-09-15T16:16:56.654Z,2.97
2018-09-15T16:19:25.011Z,1.90
2018-09-15T16:21:53.494Z,1.87
2018-09-15T16:24:22.198Z,1.77
2018-09-15T16:26:50.859Z,1.67
2018-09-15T16:29:19.491Z,1.63
2018-09-15T16:31:47.854Z,1.80
2018-09-15T16:34:16.261Z,2.30
2018-09-15T16:36:46.095Z,1.97
2018-09-15T16:39:14.442Z,2.50
2018-09-15T16:41:42.846Z,1.50
2018-09-15T16:44:11.238Z,1.67
2018-09-15T16:46:39.609Z,2.13
2018-09-15T16:49:08.350Z,1.37
2018-09-15T16:51:37.199Z,1.53
2018-09-15T16:54:06.414Z,1.87
2018-09-15T16:56:35.302Z,2.10
2018-09-15T16:59:03.944Z,2.20
2018-09-15T17:01:32.308Z,1.73
2018-09-15T17:04:00.671Z,2.00
2018-09-15T17:06:29.079Z,2.00
2018-09-15T17:08:57.475Z,1.60
2018-09-15T17:11:26.827Z,2.33
2018-09-15T17:13:55.211Z,1.50
2018-09-15T17:16:24.166Z,2.50
2018-09-15T17:18:52.897Z,2.07
2018-09-15T17:21:21.289Z,2.50
2018-09-15T17:23:50.210Z,3.00
2018-09-15T17:26:19.189Z,2.77
2018-09-15T17:28:47.893Z,2.07
2018-09-15T17:31:16.582Z,2.10
2018-09-15T17:33:45.218Z,1.93
2018-09-15T17:36:13.618Z,1.93
2018-09-15T17:38:42.331Z,1.60
2018-09-15T17:41:10.691Z,2.10
2018-09-15T17:43:39.062Z,2.87
2018-09-15T17:46:07.469Z,2.07
2018-09-15T17:48:36.110Z,1.70
2018-09-15T17:51:05.166Z,2.70
2018-09-15T17:53:33.551Z,2.30
2018-09-15T17:56:02.275Z,2.13
2018-09-15T17:58:30.971Z,2.57
2018-09-15T18:00:59.360Z,2.97
2018-09-15T18:03:28.092Z,2.23
2018-09-15T18:05:57.228Z,2.40
2018-09-15T18:08:25.580Z,1.87
2018-09-15T18:10:53.971Z,2.23
2018-09-15T18:13:23.295Z,1.83
2018-09-15T18:15:51.683Z,2.50
2018-09-15T18:18:20.082Z,3.00
2018-09-15T18:20:48.455Z,1.57
2018-09-15T18:23:16.820Z,3.10
2018-09-15T18:25:45.460Z,2.80
2018-09-15T18:28:13.917Z,1.80
2018-09-15T18:30:42.271Z,2.20
2018-09-15T18:33:10.632Z,2.43
2018-09-15T18:35:39.023Z,2.13
2018-09-15T18:38:07.702Z,2.70
2018-09-15T18:40:36.695Z,2.57
2018-09-15T18:43:05.589Z,2.40
2018-09-15T18:45:34.195Z,2.90
2018-09-15T18:48:02.750Z,2.83
2018-09-15T18:50:31.485Z,2.70
2018-09-15T18:53:00.438Z,2.50
2018-09-15T18:55:28.799Z,2.23
2018-09-15T18:57:58.098Z,1.93
2018-09-15T19:00:27.365Z,2.20
2018-09-15T19:02:56.447Z,2.77
2018-09-15T19:05:25.395Z,2.70
2018-09-15T19:07:54.310Z,2.40
2018-09-15T19:10:22.388Z,2.20
2018-09-15T19:12:51.066Z,3.57
2018-09-15T19:15:19.417Z,2.70
2018-09-15T19:17:47.801Z,2.57
2018-09-15T19:20:17.054Z,2.10
2018-09-15T19:22:47.319Z,2.50
2018-09-15T19:25:15.688Z,2.93
2018-09-15T19:27:44.067Z,2.23
2018-09-15T19:30:12.431Z,2.70
2018-09-15T19:32:41.050Z,2.90
2018-09-15T19:35:09.443Z,2.60
2018-09-15T19:37:38.079Z,2.27
2018-09-15T19:40:06.611Z,2.30
2018-09-15T19:42:35.734Z,2.70
2018-09-15T19:45:04.381Z,3.60
2018-09-15T19:47:33.967Z,3.00
2018-09-15T19:50:02.367Z,2.80
2018-09-15T19:52:30.738Z,2.30
2018-09-15T19:54:59.115Z,2.07
2018-09-15T19:57:27.207Z,2.50
2018-09-15T19:59:56.082Z,2.70
2018-09-15T20:02:24.691Z,2.50
2018-09-15T20:04:53.092Z,2.33
2018-09-15T20:07:21.746Z,2.77
2018-09-15T20:09:50.139Z,2.43
2018-09-15T20:12:18.819Z,2.93
2018-09-15T20:14:47.167Z,2.50
2018-09-15T20:17:14.719Z,3.00
2018-09-15T20:19:42.006Z,2.90
2018-09-15T20:22:10.390Z,2.80
2018-09-15T20:24:39.763Z,3.17
2018-09-15T20:27:08.147Z,3.03
2018-09-15T20:29:37.110Z,2.53
2018-09-15T20:32:05.484Z,4.00
2018-09-15T20:34:33.891Z,3.27
2018-09-15T20:37:02.243Z,2.70
2018-09-15T20:39:30.607Z,2.53
2018-09-15T20:41:58.975Z,3.00
2018-09-15T20:44:27.323Z,2.83
2018-09-15T20:46:55.706Z,3.10
2018-09-15T20:49:24.092Z,4.07
2018-09-15T20:51:52.451Z,2.37
2018-09-15T20:54:21.419Z,2.80
2018-09-15T20:56:50.397Z,3.43
2018-09-15T20:59:18.750Z,2.70
2018-09-15T21:01:47.126Z,3.27
2018-09-15T21:04:15.773Z,3.47
2018-09-15T21:06:44.375Z,3.50
2018-09-15T21:09:13.002Z,2.50
2018-09-15T21:11:41.387Z,3.40
2018-09-15T21:14:10.112Z,2.63
2018-09-15T21:16:38.545Z,3.50
2018-09-15T21:19:06.930Z,2.70
2018-09-15T21:21:35.674Z,3.50
2018-09-15T21:24:04.080Z,3.17
2018-09-15T21:26:33.304Z,2.60
2018-09-15T21:29:02.722Z,3.23
2018-09-15T21:31:31.133Z,3.53
2018-09-15T21:33:59.826Z,3.90
2018-09-15T21:36:28.447Z,2.67
2018-09-15T21:38:57.126Z,3.60
2018-09-15T21:41:25.514Z,3.87
2018-09-15T21:43:53.900Z,3.13
2018-09-15T21:46:22.270Z,3.27
2018-09-15T21:48:51.254Z,2.80
2018-09-15T21:51:19.595Z,3.17
2018-09-15T21:53:48.453Z,3.30
2018-09-15T21:56:16.856Z,2.50
2018-09-15T21:58:45.486Z,3.23
2018-09-15T22:01:13.838Z,2.57
2018-09-15T22:03:47.792Z,3.10
2018-09-15T22:06:16.409Z,2.80
2018-09-15T22:08:45.043Z,2.80
2018-09-15T22:11:13.432Z,3.13
2018-09-15T22:13:42.058Z,2.80
2018-09-15T22:16:10.703Z,3.50
2018-09-15T22:18:39.111Z,3.47
2018-09-15T22:21:07.503Z,2.50
2018-09-15T22:23:36.154Z,2.80
2018-09-15T22:26:04.555Z,4.00
2018-09-15T22:28:33.346Z,2.70
2018-09-15T22:31:01.900Z,2.73
2018-09-15T22:33:30.296Z,3.10
2018-09-15T22:35:59.254Z,3.10
2018-09-15T22:38:27.935Z,3.00
2018-09-15T22:40:56.923Z,3.30
2018-09-15T22:43:25.336Z,3.20
2018-09-15T22:45:53.707Z,4.17
2018-09-15T22:48:22.435Z,3.63
2018-09-15T22:50:51.006Z,2.63
2018-09-15T22:53:19.375Z,3.20
2018-09-15T22:55:47.759Z,3.73
2018-09-15T22:58:16.107Z,3.83
2018-09-15T23:00:44.478Z,2.47
2018-09-15T23:03:12.866Z,3.60
2018-09-15T23:05:41.837Z,3.50
2018-09-15T23:08:10.582Z,2.73
2018-09-15T23:10:39.191Z,3.37
2018-09-15T23:13:07.546Z,3.07
2018-09-15T23:15:35.882Z,3.47
2018-09-15T23:18:04.527Z,2.90
2018-09-15T23:20:33.190Z,2.93
2018-09-15T23:23:01.730Z,3.10
2018-09-15T23:25:30.326Z,2.33
2018-09-15T23:27:58.678Z,2.83
2018-09-15T23:30:27.457Z,3.30
2018-09-15T23:32:56.083Z,3.67
2018-09-15T23:35:24.435Z,3.00
2018-09-15T23:37:52.799Z,2.93
2018-09-15T23:40:21.297Z,4.53
2018-09-15T23:42:49.659Z,3.40
2018-09-15T23:45:18.650Z,3.57
2018-09-15T23:47:47.042Z,3.03
2018-09-15T23:50:15.610Z,2.67
2018-09-15T23:52:44.507Z,2.90
2018-09-15T23:55:13.231Z,3.00
2018-09-15T23:57:42.059Z,2.83
